createdAt,value
2022-09-28T00:01:42.478Z,73.30
2022-09-28T00:04:14.192Z,73.47
2022-09-28T00:06:46.871Z,73.28
2022-09-28T00:09:18.287Z,73.44
2022-09-28T00:11:48.368Z,73.43
2022-09-28T00:14:18.108Z,73.33
2022-09-28T00:16:50.327Z,73.42
2022-09-28T00:19:20.571Z,73.57
2022-09-28T00:21:49.307Z,73.48
2022-09-28T00:24:18.159Z,73.39
2022-09-28T00:26:55.914Z,73.38
2022-09-28T00:29:28.178Z,73.46
2022-09-28T00:32:02.619Z,73.49
2022-09-28T00:34:38.469Z,73.59
2022-09-28T00:37:09.586Z,73.52
2022-09-28T00:39:42.328Z,73.58
2022-09-28T00:42:19.901Z,73.58
2022-09-28T00:44:47.933Z,73.65
2022-09-28T00:47:26.350Z,73.69
2022-09-28T00:50:01.004Z,73.79
2022-09-28T00:52:42.809Z,73.63
2022-09-28T00:55:22.083Z,73.80
2022-09-28T00:58:00.686Z,73.65
2022-09-28T01:00:28.831Z,73.74
2022-09-28T01:03:02.093Z,73.71
2022-09-28T01:05:33.032Z,73.82
2022-09-28T01:08:04.785Z,73.88
2022-09-28T01:10:34.786Z,73.68
2022-09-28T01:13:02.491Z,73.82
2022-09-28T01:15:38.415Z,73.93
2022-09-28T01:18:21.672Z,74.06
2022-09-28T01:24:46.597Z,74.11
2022-09-28T01:27:27.389Z,73.93
2022-09-28T01:30:12.305Z,74.06
2022-09-28T01:32:43.080Z,73.98
2022-09-28T01:35:41.010Z,74.03
2022-09-28T01:38:22.273Z,74.07
2022-09-28T01:40:54.442Z,74.13
2022-09-28T01:43:37.594Z,74.15
2022-09-28T01:46:17.957Z,74.29
2022-09-28T01:49:00.815Z,74.23
2022-09-28T01:51:41.160Z,74.15
2022-09-28T01:54:29.558Z,74.04
2022-09-28T01:57:10.963Z,74.17
2022-09-28T01:59:46.696Z,74.24
2022-09-28T02:02:26.780Z,74.26
2022-09-28T02:05:13.394Z,74.12
2022-09-28T02:08:03.645Z,74.36
2022-09-28T02:10:44.121Z,74.41
2022-09-28T02:13:42.910Z,74.29
2022-09-28T02:16:21.562Z,74.34
2022-09-28T02:18:53.679Z,74.31
2022-09-28T02:21:34.645Z,74.39
2022-09-28T02:24:21.713Z,74.26
2022-09-28T02:26:55.936Z,74.50
2022-09-28T02:29:27.434Z,74.38
2022-09-28T02:31:57.847Z,74.48
2022-09-28T02:34:26.275Z,74.41
2022-09-28T02:36:58.528Z,74.05
2022-09-28T02:39:28.893Z,74.25
2022-09-28T02:42:19.610Z,74.30
2022-09-28T02:45:09.949Z,74.34
2022-09-28T02:47:59.309Z,74.49
2022-09-28T02:50:52.892Z,74.56
2022-09-28T02:53:50.532Z,74.59
2022-09-28T02:56:34.387Z,74.59
2022-09-28T02:59:39.637Z,74.63
2022-09-28T03:02:26.398Z,74.59
2022-09-28T03:05:09.238Z,74.81
2022-09-28T03:08:03.566Z,74.65
2022-09-28T03:10:46.564Z,74.78
2022-09-28T03:13:18.946Z,74.88
2022-09-28T03:15:48.974Z,74.79
2022-09-28T03:18:21.605Z,74.83
2022-09-28T03:20:52.920Z,74.84
2022-09-28T03:23:24.753Z,74.73
2022-09-28T03:25:56.440Z,74.85
2022-09-28T03:28:26.733Z,74.95
2022-09-28T03:30:54.521Z,74.82
2022-09-28T03:33:23.797Z,74.79
2022-09-28T03:35:56.954Z,74.92
2022-09-28T03:38:27.072Z,74.91
2022-09-28T03:41:03.246Z,74.83
2022-09-28T03:43:32.266Z,74.81
2022-09-28T03:46:03.248Z,74.93
2022-09-28T03:48:40.147Z,75.01
2022-09-28T03:51:11.089Z,74.92
2022-09-28T03:53:40.974Z,74.96
2022-09-28T03:56:14.225Z,75.03
2022-09-28T03:58:46.760Z,75.07
2022-09-28T04:01:19.596Z,75.07
2022-09-28T04:03:56.091Z,74.88
2022-09-28T04:06:29.713Z,75.00
2022-09-28T04:08:57.841Z,75.04
2022-09-28T04:11:25.557Z,75.09
2022-09-28T04:13:53.497Z,74.96
2022-09-28T04:16:24.159Z,74.96
2022-09-28T04:19:04.387Z,75.05
2022-09-28T04:21:32.193Z,75.03
2022-09-28T04:24:00.857Z,74.87
2022-09-28T04:26:31.661Z,75.05
2022-09-28T04:29:19.533Z,75.00
2022-09-28T04:31:57.391Z,74.99
2022-09-28T04:34:29.802Z,74.96
2022-09-28T04:36:59.876Z,74.92
2022-09-28T04:39:30.550Z,75.03
2022-09-28T04:41:58.491Z,75.01
2022-09-28T04:44:26.397Z,75.11
2022-09-28T04:47:04.361Z,75.04
2022-09-28T04:49:39.772Z,75.11
2022-09-28T04:52:13.558Z,75.22
2022-09-28T04:54:47.091Z,75.09
2022-09-28T04:57:15.939Z,75.06
2022-09-28T04:59:48.213Z,75.09
2022-09-28T05:02:16.222Z,75.05
2022-09-28T05:04:43.894Z,75.14
2022-09-28T05:07:13.133Z,75.11
2022-09-28T05:09:41.235Z,75.21
2022-09-28T05:12:13.621Z,75.25
2022-09-28T05:14:43.635Z,75.13
2022-09-28T05:17:11.406Z,75.12
2022-09-28T05:19:39.508Z,75.32
2022-09-28T05:22:15.029Z,75.19
2022-09-28T05:24:43.949Z,75.13
2022-09-28T05:27:13.821Z,75.17
2022-09-28T05:29:41.866Z,75.03
2022-09-28T05:32:12.835Z,75.25
2022-09-28T05:34:40.558Z,75.21
2022-09-28T05:37:12.793Z,75.26
2022-09-28T05:39:42.852Z,75.15
2022-09-28T05:42:10.754Z,75.29
2022-09-28T05:44:39.088Z,75.35
2022-09-28T05:47:09.829Z,75.40
2022-09-28T05:49:37.505Z,75.43
2022-09-28T05:52:05.266Z,75.47
2022-09-28T05:54:36.262Z,75.42
2022-09-28T05:57:10.068Z,75.43
2022-09-28T05:59:41.520Z,75.45
2022-09-28T06:02:11.161Z,75.33
2022-09-28T06:04:39.241Z,75.34
2022-09-28T06:07:07.540Z,75.52
2022-09-28T06:09:35.266Z,75.42
2022-09-28T06:12:03.536Z,75.50
2022-09-28T06:14:31.480Z,75.51
2022-09-28T06:16:59.832Z,75.57
2022-09-28T06:19:31.465Z,75.33
2022-09-28T06:21:59.443Z,75.46
2022-09-28T06:24:30.346Z,75.50
2022-09-28T06:26:58.185Z,75.63
2022-09-28T06:29:31.763Z,75.50
2022-09-28T06:31:59.487Z,75.55
2022-09-28T06:34:31.924Z,75.57
2022-09-28T06:36:59.635Z,75.61
2022-09-28T06:39:27.957Z,75.69
2022-09-28T06:41:56.957Z,75.41
2022-09-28T06:44:25.618Z,75.41
2022-09-28T06:46:54.101Z,75.35
2022-09-28T06:49:23.078Z,75.25
2022-09-28T06:51:51.001Z,75.47
2022-09-28T06:54:20.375Z,75.33
2022-09-28T06:56:48.246Z,75.41
2022-09-28T06:59:16.111Z,75.33
2022-09-28T07:01:44.110Z,75.40
2022-09-28T07:04:13.019Z,75.42
2022-09-28T07:06:47.396Z,75.41
2022-09-28T07:09:30.681Z,75.34
2022-09-28T07:12:01.603Z,75.31
2022-09-28T07:14:47.489Z,75.34
2022-09-28T07:17:17.572Z,75.21
2022-09-28T07:19:46.547Z,75.35
2022-09-28T07:22:18.960Z,75.35
2022-09-28T07:24:49.183Z,75.41
2022-09-28T07:27:18.646Z,75.54
2022-09-28T07:29:46.394Z,75.17
2022-09-28T07:32:16.679Z,75.19
2022-09-28T07:34:45.226Z,75.24
2022-09-28T07:37:14.419Z,75.34
2022-09-28T07:40:03.295Z,75.26
2022-09-28T07:42:31.555Z,75.13
2022-09-28T07:45:00.953Z,75.16
2022-09-28T07:47:34.827Z,75.05
2022-09-28T07:50:03.987Z,74.91
2022-09-28T07:52:36.735Z,74.98
2022-09-28T07:55:07.216Z,74.86
2022-09-28T07:57:36.998Z,74.90
2022-09-28T08:00:09.291Z,74.97
2022-09-28T08:02:38.450Z,74.67
2022-09-28T08:05:10.047Z,74.67
2022-09-28T08:07:38.885Z,74.74
2022-09-28T08:10:07.671Z,74.60
2022-09-28T08:12:41.579Z,74.53
2022-09-28T08:15:11.335Z,74.59
2022-09-28T08:17:39.129Z,74.44
2022-09-28T08:20:28.833Z,74.42
2022-09-28T08:23:08.721Z,74.39
2022-09-28T08:25:38.715Z,74.29
2022-09-28T08:28:09.738Z,74.32
2022-09-28T08:30:38.745Z,74.20
2022-09-28T08:33:08.084Z,74.39
2022-09-28T08:35:37.535Z,74.24
2022-09-28T08:38:08.299Z,73.97
2022-09-28T08:41:13.815Z,73.91
2022-09-28T08:43:48.057Z,73.38
2022-09-28T08:46:23.801Z,73.30
2022-09-28T08:49:24.854Z,72.77
2022-09-28T08:52:08.356Z,72.47
2022-09-28T08:55:26.357Z,72.14
2022-09-28T08:58:20.070Z,72.15
2022-09-28T09:00:51.126Z,71.78
2022-09-28T09:03:36.027Z,71.86
2022-09-28T09:06:03.863Z,71.51
2022-09-28T09:08:56.264Z,71.47
2022-09-28T09:11:44.407Z,71.27
2022-09-28T09:14:35.023Z,70.88
2022-09-28T09:17:24.512Z,70.70
2022-09-28T09:20:07.955Z,70.39
2022-09-28T09:22:48.493Z,70.47
2022-09-28T09:25:52.097Z,70.39
2022-09-28T09:28:32.045Z,70.18
2022-09-28T09:31:43.757Z,69.94
2022-09-28T09:34:21.025Z,69.75
2022-09-28T09:37:05.480Z,69.39
2022-09-28T09:39:58.638Z,69.49
2022-09-28T09:42:29.884Z,69.27
2022-09-28T09:45:19.079Z,69.38
2022-09-28T09:47:53.699Z,69.02
2022-09-28T09:50:31.039Z,68.83
2022-09-28T09:53:25.389Z,68.65
2022-09-28T09:55:58.762Z,68.32
2022-09-28T09:58:34.398Z,68.15
2022-09-28T10:01:10.609Z,67.68
2022-09-28T10:03:44.976Z,67.79
2022-09-28T10:06:46.632Z,67.78
2022-09-28T10:09:25.324Z,67.29
2022-09-28T10:11:54.595Z,67.00
2022-09-28T10:14:24.872Z,67.07
2022-09-28T10:16:55.943Z,66.74
2022-09-28T10:19:35.163Z,66.49
2022-09-28T10:22:06.700Z,66.49
2022-09-28T10:24:41.579Z,66.33
2022-09-28T10:27:38.758Z,66.25
2022-09-28T10:30:09.565Z,66.08
2022-09-28T10:32:40.199Z,65.86
2022-09-28T10:35:23.073Z,65.67
2022-09-28T10:37:56.699Z,65.22
2022-09-28T10:40:43.600Z,65.07
2022-09-28T10:43:35.948Z,65.09
2022-09-28T10:46:07.613Z,64.85
2022-09-28T10:48:55.103Z,64.73
2022-09-28T10:51:45.519Z,64.54
2022-09-28T10:54:22.298Z,64.43
2022-09-28T10:56:52.961Z,64.12
2022-09-28T10:59:25.484Z,64.30
2022-09-28T11:01:59.966Z,64.06
2022-09-28T11:04:40.666Z,64.04
2022-09-28T11:07:20.465Z,63.78
2022-09-28T11:09:50.220Z,63.75
2022-09-28T11:12:24.846Z,63.57
2022-09-28T11:15:05.077Z,63.67
2022-09-28T11:17:40.655Z,63.57
2022-09-28T11:20:28.200Z,63.46
2022-09-28T11:23:00.365Z,63.65
2022-09-28T11:25:31.599Z,63.39
2022-09-28T11:28:05.031Z,63.07
2022-09-28T11:30:44.772Z,62.96
2022-09-28T11:33:24.470Z,62.85
2022-09-28T11:36:19.251Z,62.79
2022-09-28T11:39:13.400Z,62.68
2022-09-28T11:41:48.675Z,62.30
2022-09-28T11:44:32.530Z,62.27
2022-09-28T11:47:39.735Z,62.28
2022-09-28T11:50:32.456Z,62.10
2022-09-28T11:53:42.886Z,62.08
2022-09-28T11:56:40.627Z,61.89
2022-09-28T11:59:27.753Z,61.83
2022-09-28T12:02:22.540Z,61.72
2022-09-28T12:05:15.932Z,61.75
2022-09-28T12:07:56.581Z,61.56
2022-09-28T12:10:45.540Z,61.44
2022-09-28T12:13:23.063Z,61.37
2022-09-28T12:16:27.652Z,61.21
2022-09-28T12:21:37.256Z,60.82
2022-09-28T12:24:27.278Z,60.86
2022-09-28T12:27:04.429Z,60.82
2022-09-28T12:29:41.368Z,60.46
2022-09-28T12:32:31.489Z,60.50
2022-09-28T12:35:03.378Z,60.36
2022-09-28T12:37:53.960Z,60.30
2022-09-28T12:40:42.349Z,60.48
2022-09-28T12:43:34.034Z,60.29
2022-09-28T12:46:41.211Z,60.08
2022-09-28T12:52:50.437Z,59.76
2022-09-28T12:56:01.936Z,59.73
2022-09-28T12:58:51.040Z,59.61
2022-09-28T13:01:46.360Z,59.54
2022-09-28T13:04:37.182Z,59.36
2022-09-28T13:07:39.060Z,59.37
2022-09-28T13:10:26.576Z,59.12
2022-09-28T13:13:06.434Z,59.05
2022-09-28T13:15:50.672Z,58.89
2022-09-28T13:18:45.530Z,58.86
2022-09-28T13:21:20.170Z,58.83
2022-09-28T13:24:00.720Z,58.89
2022-09-28T13:26:43.686Z,58.70
2022-09-28T13:29:15.949Z,58.58
2022-09-28T13:31:57.391Z,58.34
2022-09-28T13:34:28.991Z,58.37
2022-09-28T13:37:18.911Z,58.47
2022-09-28T13:39:53.116Z,58.22
2022-09-28T13:42:29.696Z,58.14
2022-09-28T13:45:20.525Z,58.12
2022-09-28T13:47:59.949Z,57.88
2022-09-28T13:50:54.109Z,57.87
2022-09-28T13:53:52.498Z,57.54
2022-09-28T13:56:29.961Z,57.82
2022-09-28T13:59:15.219Z,57.71
2022-09-28T14:01:55.929Z,57.20
2022-09-28T14:04:48.580Z,57.17
2022-09-28T14:07:23.483Z,57.20
2022-09-28T14:10:24.745Z,57.18
2022-09-28T14:12:54.997Z,57.00
2022-09-28T14:15:28.524Z,57.00
2022-09-28T14:18:24.800Z,57.02
2022-09-28T14:21:26.042Z,56.90
2022-09-28T14:24:08.555Z,56.83
2022-09-28T14:26:42.263Z,56.59
2022-09-28T14:29:30.603Z,56.73
2022-09-28T14:32:10.212Z,56.52
2022-09-28T14:34:46.647Z,56.46
2022-09-28T14:37:56.881Z,56.22
2022-09-28T14:40:50.545Z,56.05
2022-09-28T14:43:25.076Z,56.13
2022-09-28T14:46:15.690Z,56.06
2022-09-28T14:49:01.818Z,56.00
2022-09-28T14:51:30.467Z,56.05
2022-09-28T14:54:08.415Z,55.99
2022-09-28T14:56:43.721Z,56.04
2022-09-28T14:59:26.281Z,55.90
2022-09-28T15:02:06.444Z,55.85
2022-09-28T15:04:39.658Z,55.82
2022-09-28T15:07:20.131Z,55.67
2022-09-28T15:09:51.517Z,55.71
2022-09-28T15:12:27.716Z,55.50
2022-09-28T15:14:58.854Z,55.49
2022-09-28T15:17:39.420Z,55.34
2022-09-28T15:20:24.702Z,55.36
2022-09-28T15:22:58.865Z,55.28
2022-09-28T15:25:31.819Z,55.23
2022-09-28T15:28:06.537Z,55.29
2022-09-28T15:30:36.548Z,55.26
2022-09-28T15:33:24.634Z,55.27
2022-09-28T15:36:04.418Z,55.28
2022-09-28T15:38:36.056Z,55.36
2022-09-28T15:41:07.174Z,55.42
2022-09-28T15:43:37.556Z,55.34
2022-09-28T15:46:20.695Z,55.35
2022-09-28T15:48:56.950Z,55.29
2022-09-28T15:51:28.670Z,55.20
2022-09-28T15:54:10.661Z,55.28
2022-09-28T15:56:58.108Z,55.23
2022-09-28T15:59:32.052Z,55.23
2022-09-28T16:02:20.907Z,55.18
2022-09-28T16:04:56.298Z,55.18
2022-09-28T16:07:34.420Z,55.32
2022-09-28T16:10:12.848Z,55.06
2022-09-28T16:13:17.868Z,55.08
2022-09-28T16:15:55.600Z,55.07
2022-09-28T16:18:26.666Z,55.11
2022-09-28T16:21:16.532Z,55.16
2022-09-28T16:23:55.719Z,55.24
2022-09-28T16:26:35.892Z,55.27
2022-09-28T16:29:25.910Z,55.16
2022-09-28T16:31:55.643Z,55.24
2022-09-28T16:34:28.664Z,55.18
2022-09-28T16:36:56.710Z,55.21
2022-09-28T16:39:26.812Z,55.24
2022-09-28T16:42:04.043Z,55.19
2022-09-28T16:44:33.839Z,55.37
2022-09-28T16:47:02.992Z,55.31
2022-09-28T16:49:35.316Z,55.46
2022-09-28T16:52:04.409Z,55.46
2022-09-28T16:54:52.000Z,55.52
2022-09-28T16:57:21.786Z,55.56
2022-09-28T16:59:50.872Z,55.59
2022-09-28T17:05:16.055Z,55.65
2022-09-28T17:07:46.193Z,55.58
2022-09-28T17:10:25.626Z,55.62
2022-09-28T17:12:53.336Z,55.62
2022-09-28T17:15:21.370Z,55.66
2022-09-28T17:17:51.905Z,55.66
2022-09-28T17:20:26.361Z,55.60
2022-09-28T17:22:54.326Z,55.67
2022-09-28T17:25:26.192Z,55.62
2022-09-28T17:27:57.620Z,55.67
2022-09-28T17:30:26.833Z,55.57
2022-09-28T17:32:55.706Z,55.57
2022-09-28T17:35:25.034Z,55.63
2022-09-28T17:37:56.961Z,55.57
2022-09-28T17:40:28.517Z,55.62
2022-09-28T17:42:59.524Z,55.65
2022-09-28T17:45:32.725Z,55.68
2022-09-28T17:48:02.808Z,55.69
2022-09-28T17:50:34.981Z,55.67
2022-09-28T17:53:07.337Z,55.68
2022-09-28T17:55:37.031Z,55.74
2022-09-28T17:58:23.505Z,55.76
2022-09-28T18:00:52.984Z,55.74
2022-09-28T18:03:24.379Z,55.79
2022-09-28T18:06:04.376Z,55.73
2022-09-28T18:08:34.775Z,55.75
2022-09-28T18:11:03.928Z,55.89
2022-09-28T18:13:34.109Z,55.81
2022-09-28T18:16:05.108Z,55.83
2022-09-28T18:18:38.786Z,55.85
2022-09-28T18:21:09.488Z,55.94
2022-09-28T18:23:40.135Z,55.95
2022-09-28T18:26:15.969Z,55.99
2022-09-28T18:28:43.941Z,56.05
2022-09-28T18:31:16.372Z,56.04
2022-09-28T18:33:45.541Z,56.02
2022-09-28T18:36:13.421Z,56.06
2022-09-28T18:38:42.681Z,56.06
2022-09-28T18:41:16.012Z,56.17
2022-09-28T18:43:51.132Z,56.23
2022-09-28T18:46:20.448Z,56.30
2022-09-28T18:48:49.596Z,56.28
2022-09-28T18:51:20.698Z,56.40
2022-09-28T18:53:51.297Z,56.34
2022-09-28T18:56:22.500Z,56.51
2022-09-28T18:58:51.933Z,56.48
2022-09-28T19:01:31.058Z,56.45
2022-09-28T19:04:04.890Z,56.61
2022-09-28T19:06:34.986Z,56.64
2022-09-28T19:09:04.903Z,56.56
2022-09-28T19:11:33.884Z,56.60
2022-09-28T19:14:04.317Z,56.73
2022-09-28T19:16:35.955Z,56.66
2022-09-28T19:19:03.715Z,56.79
2022-09-28T19:21:31.981Z,56.77
2022-09-28T19:24:04.346Z,56.89
2022-09-28T19:26:33.794Z,56.92
2022-09-28T19:29:03.793Z,56.99
2022-09-28T19:31:34.090Z,56.96
2022-09-28T19:34:04.085Z,56.88
2022-09-28T19:36:33.793Z,57.00
2022-09-28T19:39:03.442Z,57.14
2022-09-28T19:41:44.538Z,57.13
2022-09-28T19:44:25.218Z,57.04
2022-09-28T19:47:07.082Z,57.08
2022-09-28T19:49:40.482Z,57.14
2022-09-28T19:52:16.793Z,57.09
2022-09-28T19:54:57.842Z,57.08
2022-09-28T19:57:31.720Z,57.19
2022-09-28T20:00:03.751Z,57.17
2022-09-28T20:02:35.328Z,57.22
2022-09-28T20:05:06.155Z,57.37
2022-09-28T20:07:37.431Z,57.35
2022-09-28T20:10:08.073Z,57.43
2022-09-28T20:12:36.173Z,57.52
2022-09-28T20:15:06.825Z,57.53
2022-09-28T20:17:37.676Z,57.61
2022-09-28T20:20:08.244Z,57.70
2022-09-28T20:22:38.414Z,57.70
2022-09-28T20:25:07.741Z,57.87
2022-09-28T20:27:39.286Z,57.85
2022-09-28T20:30:09.612Z,58.02
2022-09-28T20:32:39.449Z,57.97
2022-09-28T20:35:09.213Z,58.10
2022-09-28T20:37:36.960Z,58.06
2022-09-28T20:40:06.823Z,58.25
2022-09-28T20:42:36.459Z,58.24
2022-09-28T20:45:06.017Z,58.28
2022-09-28T20:47:35.246Z,58.36
2022-09-28T20:50:03.262Z,58.37
2022-09-28T20:52:31.233Z,58.43
2022-09-28T20:55:00.844Z,58.49
2022-09-28T20:57:29.154Z,58.55
2022-09-28T20:59:57.052Z,58.74
2022-09-28T21:02:27.060Z,58.60
2022-09-28T21:04:55.386Z,58.82
2022-09-28T21:07:23.098Z,58.79
2022-09-28T21:09:51.100Z,58.75
2022-09-28T21:12:20.210Z,58.85
2022-09-28T21:14:48.384Z,58.89
2022-09-28T21:17:17.274Z,58.93
2022-09-28T21:19:47.166Z,58.95
2022-09-28T21:22:15.102Z,58.99
2022-09-28T21:24:43.042Z,59.00
2022-09-28T21:27:11.002Z,59.04
2022-09-28T21:29:40.641Z,59.02
2022-09-28T21:32:09.792Z,59.14
2022-09-28T21:34:38.186Z,59.08
2022-09-28T21:37:06.134Z,59.28
2022-09-28T21:39:34.404Z,59.25
2022-09-28T21:42:02.379Z,59.25
2022-09-28T21:44:30.581Z,59.25
2022-09-28T21:46:58.374Z,59.24
2022-09-28T21:49:26.286Z,59.28
2022-09-28T21:51:54.497Z,59.45
2022-09-28T21:54:24.171Z,59.39
2022-09-28T21:56:54.438Z,59.39
2022-09-28T21:59:23.878Z,59.49
2022-09-28T22:01:55.995Z,59.44
2022-09-28T22:04:23.949Z,59.49
2022-09-28T22:06:52.261Z,59.51
2022-09-28T22:09:20.215Z,59.44
2022-09-28T22:11:51.073Z,59.58
2022-09-28T22:14:19.159Z,59.55
2022-09-28T22:16:48.257Z,59.50
2022-09-28T22:19:16.079Z,59.59
2022-09-28T22:21:48.190Z,59.55
2022-09-28T22:24:16.134Z,59.58
2022-09-28T22:26:44.470Z,59.68
2022-09-28T22:29:14.649Z,59.56
2022-09-28T22:31:44.154Z,59.55
2022-09-28T22:34:12.216Z,59.63
2022-09-28T22:36:42.489Z,59.75
2022-09-28T22:39:10.658Z,59.78
2022-09-28T22:41:38.633Z,59.80
2022-09-28T22:44:06.681Z,59.84
2022-09-28T22:46:35.202Z,59.90
2022-09-28T22:49:05.327Z,59.94
2022-09-28T22:51:35.709Z,59.93
2022-09-28T22:54:03.453Z,59.91
2022-09-28T22:56:34.510Z,60.01
2022-09-28T22:59:06.628Z,59.97
2022-09-28T23:04:19.927Z,59.95
2022-09-28T23:06:49.334Z,60.04
2022-09-28T23:09:17.563Z,59.95
2022-09-28T23:11:47.774Z,60.00
2022-09-28T23:14:15.650Z,60.03
2022-09-28T23:16:46.160Z,60.03
2022-09-28T23:19:13.843Z,60.12
2022-09-28T23:21:47.115Z,60.12
2022-09-28T23:24:15.959Z,60.18
2022-09-28T23:26:45.167Z,60.14
2022-09-28T23:29:14.124Z,60.14
2022-09-28T23:31:46.476Z,60.26
2022-09-28T23:34:14.335Z,60.27
2022-09-28T23:36:44.656Z,60.19
2022-09-28T23:39:12.624Z,60.24
2022-09-28T23:41:43.004Z,60.30
2022-09-28T23:44:10.994Z,60.29
2022-09-28T23:46:42.519Z,60.26
2022-09-28T23:49:12.994Z,60.28
2022-09-28T23:51:40.769Z,60.28
2022-09-28T23:54:11.102Z,60.44
2022-09-28T23:56:41.461Z,60.40
2022-09-28T23:59:09.373Z,60.35
